^^
Your Local Weather - Clay, NY Station Historical Data
Daily Summary for May 18, 2017 Units:  English    Metric   Both
« Previous Day
Next Day »
Daily Weekly Monthly Yearly Custom
  High: Low: Average:
Temperature: 88.1 °F 61.2 °F 74.2 °F
Dew Point: 64.7 °F 55.8 °F 60.1 °F
Humidity: 88% 40% 65%
Wind Speed: 6.0mph 0.0mph 2.3mph
Wind Gust: 13.0mph - -
Wind- - SW
Pressure: 29.81 in 29.67 in -
Precipitation: 0.05 in    
Historical Graphs
 
 
Tabular Data for May 18, 2017
Time Temperature Dew Point Pressure Wind Wind Speed Wind Gust Humidity Rainfall Rate (Hourly) solar
00:02 65.6 °F 59.3 °F 29.80 in Calm     80% 0.00 in 0 W/m2
00:08 65.4 °F 59.1 °F 29.79 in Calm     80% 0.00 in 0 W/m2
00:13 65.3 °F 59.3 °F 29.79 in Calm   1.0 mph 81% 0.00 in 0 W/m2
00:19 65.2 °F 59.6 °F 29.79 in Calm     82% 0.00 in 0 W/m2
00:25 65.0 °F 59.4 °F 29.79 in Calm     82% 0.00 in 0 W/m2
00:31 64.8 °F 59.2 °F 29.79 in Calm     82% 0.00 in 0 W/m2
00:38 64.6 °F 59.3 °F 29.79 in Calm     83% 0.00 in 0 W/m2
00:43 64.4 °F 59.1 °F 29.78 in Calm     83% 0.00 in 0 W/m2
00:49 64.2 °F 58.9 °F 29.79 in Calm     83% 0.00 in 0 W/m2
00:55 64.1 °F 59.2 °F 29.79 in Calm     84% 0.00 in 0 W/m2
01:02 63.9 °F 59.3 °F 29.79 in Calm     85% 0.00 in 0 W/m2
01:08 63.9 °F 59.3 °F 29.79 in Calm     85% 0.00 in 0 W/m2
01:13 63.7 °F 59.1 °F 29.78 in Calm     85% 0.00 in 0 W/m2
01:19 63.6 °F 59.3 °F 29.78 in Calm     86% 0.00 in 0 W/m2
01:25 63.7 °F 59.4 °F 29.78 in Calm     86% 0.00 in 0 W/m2
01:32 63.6 °F 59.7 °F 29.78 in Calm     87% 0.00 in 0 W/m2
01:38 63.5 °F 59.6 °F 29.78 in Calm     87% 0.00 in 0 W/m2
01:43 63.4 °F 59.5 °F 29.78 in Calm     87% 0.00 in 0 W/m2
01:49 63.3 °F 59.4 °F 29.78 in Calm     87% 0.00 in 0 W/m2
01:55 63.2 °F 59.3 °F 29.78 in Calm     87% 0.00 in 0 W/m2
02:02 63.2 °F 59.3 °F 29.78 in Calm     87% 0.00 in 0 W/m2
02:08 63.3 °F 59.7 °F 29.78 in Calm     88% 0.00 in 0 W/m2
02:13 63.3 °F 59.7 °F 29.78 in Calm     88% 0.00 in 0 W/m2
02:19 63.3 °F 59.7 °F 29.78 in Calm     88% 0.00 in 0 W/m2
02:25 63.2 °F 59.3 °F 29.78 in Calm     87% 0.00 in 0 W/m2
02:31 63.1 °F 59.2 °F 29.78 in Calm     87% 0.00 in 0 W/m2
02:38 63.0 °F 59.1 °F 29.79 in Calm     87% 0.00 in 0 W/m2
02:43 63.0 °F 59.1 °F 29.79 in Calm     87% 0.00 in 0 W/m2
02:49 62.9 °F 59.0 °F 29.80 in Calm     87% 0.00 in 0 W/m2
02:55 62.9 °F 59.0 °F 29.80 in Calm     87% 0.00 in 0 W/m2
03:02 62.7 °F 58.8 °F 29.80 in Calm     87% 0.00 in 0 W/m2
03:08 62.5 °F 58.6 °F 29.80 in Calm     87% 0.00 in 0 W/m2
03:13 62.3 °F 58.4 °F 29.80 in Calm     87% 0.00 in 0 W/m2
03:19 62.2 °F 58.3 °F 29.80 in Calm   1.0 mph 87% 0.00 in 0 W/m2
03:25 62.4 °F 58.5 °F 29.80 in Calm   1.0 mph 87% 0.00 in 0 W/m2
03:31 62.5 °F 58.3 °F 29.80 in Calm     86% 0.00 in 0 W/m2
03:38 62.9 °F 58.6 °F 29.80 in Calm     86% 0.00 in 0 W/m2
03:43 63.1 °F 58.5 °F 29.80 in Calm   1.0 mph 85% 0.00 in 0 W/m2
03:49 63.4 °F 58.1 °F 29.80 in Calm     83% 0.00 in 0 W/m2
03:55 63.6 °F 58.0 °F 29.80 in Calm     82% 0.00 in 0 W/m2
04:02 63.4 °F 58.1 °F 29.80 in Calm     83% 0.00 in 0 W/m2
04:08 63.2 °F 57.9 °F 29.80 in Calm     83% 0.00 in 0 W/m2
04:13 62.8 °F 57.2 °F 29.80 in Calm     82% 0.00 in 0 W/m2
04:19 62.7 °F 57.5 °F 29.80 in Calm     83% 0.00 in 0 W/m2
04:25 62.5 °F 57.3 °F 29.80 in Calm     83% 0.00 in 0 W/m2
04:32 62.3 °F 57.4 °F 29.80 in Calm     84% 0.00 in 0 W/m2
04:38 62.1 °F 56.9 °F 29.80 in Calm     83% 0.00 in 0 W/m2
04:43 62.0 °F 56.8 °F 29.80 in Calm     83% 0.00 in 0 W/m2
04:49 61.9 °F 56.7 °F 29.80 in Calm     83% 0.00 in 0 W/m2
04:55 61.8 °F 56.6 °F 29.80 in Calm     83% 0.00 in 0 W/m2
05:02 61.7 °F 56.5 °F 29.80 in Calm     83% 0.00 in 0 W/m2
05:08 61.6 °F 56.4 °F 29.81 in Calm     83% 0.00 in 0 W/m2
05:13 61.6 °F 56.4 °F 29.81 in Calm     83% 0.00 in 0 W/m2
05:19 61.6 °F 56.4 °F 29.81 in Calm     83% 0.00 in 0 W/m2
05:25 61.6 °F 56.7 °F 29.81 in Calm     84% 0.00 in 0 W/m2
05:31 61.5 °F 56.6 °F 29.81 in Calm     84% 0.00 in 0 W/m2
05:38 61.3 °F 56.1 °F 29.81 in Calm     83% 0.00 in 0 W/m2
05:43 61.3 °F 56.1 °F 29.81 in Calm     83% 0.00 in 0 W/m2
05:49 61.3 °F 56.1 °F 29.81 in Calm     83% 0.00 in 5 W/m2
05:55 61.2 °F 56.0 °F 29.81 in Calm     83% 0.00 in 7 W/m2
06:02 61.3 °F 56.1 °F 29.81 in Calm     83% 0.00 in 9 W/m2
06:08 61.3 °F 55.8 °F 29.81 in Calm     82% 0.00 in 12 W/m2
06:13 61.3 °F 55.8 °F 29.81 in Calm     82% 0.00 in 19 W/m2
06:19 61.4 °F 55.9 °F 29.81 in Calm     82% 0.00 in 30 W/m2
06:25 61.7 °F 56.1 °F 29.81 in Calm     82% 0.00 in 44 W/m2
06:32 62.3 °F 56.7 °F 29.81 in Calm     82% 0.00 in 98 W/m2
06:38 63.3 °F 57.0 °F 29.81 in Calm     80% 0.00 in 109 W/m2
06:43 64.7 °F 58.0 °F 29.81 in Calm     79% 0.00 in 127 W/m2
06:49 65.6 °F 58.2 °F 29.81 in Calm     77% 0.00 in 139 W/m2
06:55 66.6 °F 58.4 °F 29.81 in Calm     75% 0.00 in 144 W/m2
07:02 67.0 °F 58.8 °F 29.81 in Calm     75% 0.00 in 171 W/m2
07:08 67.8 °F 58.8 °F 29.81 in Calm     73% 0.00 in 192 W/m2
07:13 68.3 °F 58.9 °F 29.81 in Calm     72% 0.00 in 204 W/m2
07:19 69.6 °F 58.6 °F 29.81 in Calm     68% 0.00 in 220 W/m2
07:25 71.2 °F 58.8 °F 29.81 in Calm   3.0 mph 65% 0.00 in 236 W/m2
07:32 72.5 °F 59.2 °F 29.81 in Calm     63% 0.00 in 250 W/m2
07:38 73.5 °F 58.8 °F 29.81 in Calm     60% 0.00 in 272 W/m2
07:43 74.4 °F 57.7 °F 29.81 in Calm   2.0 mph 56% 0.00 in 281 W/m2
07:49 75.3 °F 58.0 °F 29.81 in South 1.0 mph 2.0 mph 55% 0.00 in 306 W/m2
07:55 76.2 °F 57.8 °F 29.81 in SW 2.0 mph 4.0 mph 53% 0.00 in 322 W/m2
08:02 77.0 °F 58.0 °F 29.80 in South 2.0 mph 2.0 mph 52% 0.00 in 348 W/m2
08:08 77.6 °F 57.5 °F 29.80 in SW 2.0 mph 4.0 mph 50% 0.00 in 357 W/m2
08:13 78.1 °F 57.4 °F 29.80 in West 3.0 mph 3.0 mph 49% 0.00 in 383 W/m2
08:19 78.7 °F 57.9 °F 29.80 in SW 2.0 mph 2.0 mph 49% 0.00 in 392 W/m2
08:25 79.1 °F 57.1 °F 29.80 in South 2.0 mph 3.0 mph 47% 0.00 in 417 W/m2
08:32 79.6 °F 57.6 °F 29.80 in SSW 4.0 mph 6.0 mph 47% 0.00 in 439 W/m2
08:38 80.1 °F 57.5 °F 29.80 in South 4.0 mph 6.0 mph 46% 0.00 in 457 W/m2
08:43 80.4 °F 57.1 °F 29.80 in SSW 3.0 mph 4.0 mph 45% 0.00 in 473 W/m2
08:50 80.8 °F 58.1 °F 29.79 in South 3.0 mph 13.0 mph 46% 0.00 in 492 W/m2
08:55 81.1 °F 57.7 °F 29.79 in SSE 4.0 mph 13.0 mph 45% 0.00 in 512 W/m2
09:02 81.2 °F 58.5 °F 29.79 in SW 5.0 mph 7.0 mph 46% 0.00 in 527 W/m2
09:08 81.2 °F 57.2 °F 29.79 in South 5.0 mph 10.0 mph 44% 0.00 in 547 W/m2
09:13 81.4 °F 58.0 °F 29.78 in SSE 6.0 mph 8.0 mph 45% 0.00 in 566 W/m2
09:19 81.8 °F 59.0 °F 29.79 in West 4.0 mph 5.0 mph 46% 0.00 in 584 W/m2
09:25 81.9 °F 58.5 °F 29.78 in SW 5.0 mph 10.0 mph 45% 0.00 in 603 W/m2
09:31 82.0 °F 58.6 °F 29.79 in SW 5.0 mph 9.0 mph 45% 0.00 in 619 W/m2
09:38 82.3 °F 58.8 °F 29.78 in SW 5.0 mph 9.0 mph 45% 0.00 in 642 W/m2
09:43 82.5 °F 58.4 °F 29.78 in SSW 4.0 mph 9.0 mph 44% 0.00 in 603 W/m2
09:49 82.9 °F 59.4 °F 29.78 in WSW 5.0 mph 5.0 mph 45% 0.00 in 666 W/m2
09:55 83.2 °F 59.0 °F 29.78 in SW 4.0 mph 10.0 mph 44% 0.00 in 684 W/m2
10:02 83.0 °F 58.2 °F 29.78 in SSW 6.0 mph 6.0 mph 43% 0.00 in 705 W/m2
10:08 83.0 °F 58.8 °F 29.78 in West 6.0 mph 9.0 mph 44% 0.00 in 722 W/m2
10:13 83.3 °F 57.8 °F 29.78 in SSW 5.0 mph 6.0 mph 42% 0.00 in 749 W/m2
10:19 83.4 °F 61.7 °F 29.78 in West 5.0 mph 6.0 mph 48% 0.00 in 775 W/m2
10:25 84.3 °F 58.7 °F 29.77 in South 4.0 mph 6.0 mph 42% 0.00 in 773 W/m2
10:32 83.6 °F 58.7 °F 29.77 in SW 4.0 mph 5.0 mph 43% 0.00 in 369 W/m2
10:38 83.7 °F 59.5 °F 29.77 in West 5.0 mph 8.0 mph 44% 0.00 in 821 W/m2
10:43 83.0 °F 58.8 °F 29.77 in SW 5.0 mph 9.0 mph 44% 0.00 in 341 W/m2
10:49 83.3 °F 59.7 °F 29.78 in SSW 4.0 mph 4.0 mph 45% 0.00 in 812 W/m2
10:55 83.8 °F 59.6 °F 29.77 in WSW 3.0 mph 4.0 mph 44% 0.00 in 670 W/m2
11:02 84.1 °F 60.5 °F 29.77 in South 3.0 mph 3.0 mph 45% 0.00 in 861 W/m2
11:08 84.5 °F 61.4 °F 29.78 in WSW 3.0 mph 4.0 mph 46% 0.00 in 599 W/m2
11:13 84.1 °F 59.8 °F 29.78 in SW 3.0 mph 4.0 mph 44% 0.00 in 911 W/m2
11:22 84.0 °F 59.7 °F 29.78 in SW 3.0 mph 3.0 mph 44% 0.00 in 320 W/m2
11:28 83.2 °F 59.6 °F 29.78 in WSW 3.0 mph 4.0 mph 45% 0.00 in 221 W/m2
11:33 84.0 °F 59.7 °F 29.77 in WSW 3.0 mph 12.0 mph 44% 0.00 in 626 W/m2
11:39 84.0 °F 59.7 °F 29.78 in SSW 4.0 mph 4.0 mph 44% 0.00 in 926 W/m2
11:45 84.0 °F 59.1 °F 29.78 in SSW 4.0 mph 8.0 mph 43% 0.00 in 691 W/m2
11:52 84.0 °F 59.1 °F 29.78 in WSW 5.0 mph 9.0 mph 43% 0.00 in 907 W/m2
11:58 84.6 °F 60.9 °F 29.78 in SW 5.0 mph 9.0 mph 45% 0.00 in 896 W/m2
12:03 84.6 °F 59.6 °F 29.77 in SW 4.0 mph 5.0 mph 43% 0.00 in 900 W/m2
12:09 85.1 °F 59.4 °F 29.78 in WSW 4.0 mph 9.0 mph 42% 0.00 in 891 W/m2
12:16 84.7 °F 59.1 °F 29.77 in WSW 5.0 mph 11.0 mph 42% 0.00 in 865 W/m2
12:21 85.0 °F 61.3 °F 29.77 in WSW 5.0 mph 5.0 mph 45% 0.00 in 928 W/m2
12:28 85.3 °F 60.9 °F 29.77 in WSW 3.0 mph 6.0 mph 44% 0.00 in 916 W/m2
12:33 85.2 °F 59.5 °F 29.77 in WSW 4.0 mph 5.0 mph 42% 0.00 in 689 W/m2
12:39 85.0 °F 60.6 °F 29.77 in WSW 4.0 mph 6.0 mph 44% 0.00 in 967 W/m2
12:45 85.7 °F 61.3 °F 29.76 in WSW 4.0 mph 6.0 mph 44% 0.00 in 942 W/m2
12:52 86.1 °F 59.0 °F 29.76 in WNW 5.0 mph 7.0 mph 40% 0.00 in 904 W/m2
12:58 85.5 °F 59.1 °F 29.75 in SW 6.0 mph 7.0 mph 41% 0.00 in 911 W/m2
13:03 85.9 °F 59.5 °F 29.75 in West 4.0 mph 6.0 mph 41% 0.00 in 905 W/m2
13:09 86.3 °F 63.7 °F 29.74 in WSW 3.0 mph 3.0 mph 47% 0.00 in 916 W/m2
13:15 85.9 °F 60.1 °F 29.74 in SSW 4.0 mph 6.0 mph 42% 0.00 in 958 W/m2
13:21 86.2 °F 60.4 °F 29.74 in SSW 6.0 mph 6.0 mph 42% 0.00 in 213 W/m2
13:28 85.5 °F 59.1 °F 29.74 in West 5.0 mph 6.0 mph 41% 0.00 in 1121 W/m2
13:33 86.1 °F 59.6 °F 29.74 in WSW 4.0 mph 7.0 mph 41% 0.00 in 1121 W/m2
13:39 86.7 °F 61.5 °F 29.74 in SSW 5.0 mph 8.0 mph 43% 0.00 in 1041 W/m2
13:45 86.7 °F 60.2 °F 29.74 in SW 6.0 mph 10.0 mph 41% 0.00 in 1074 W/m2
13:52 86.5 °F 59.3 °F 29.75 in SSW 5.0 mph 6.0 mph 40% 0.00 in 441 W/m2
13:58 86.0 °F 60.2 °F 29.74 in WSW 5.0 mph 6.0 mph 42% 0.00 in 327 W/m2
14:03 85.5 °F 60.4 °F 29.74 in SW 6.0 mph 6.0 mph 43% 0.00 in 541 W/m2
14:09 86.9 °F 62.4 °F 29.73 in SW 6.0 mph 7.0 mph 44% 0.00 in 1109 W/m2
14:15 87.6 °F 61.0 °F 29.73 in SSW 5.0 mph 7.0 mph 41% 0.00 in 1072 W/m2
14:21 87.5 °F 60.9 °F 29.72 in SSW 4.0 mph 5.0 mph 41% 0.00 in 904 W/m2
14:28 87.4 °F 60.1 °F 29.72 in SW 5.0 mph 5.0 mph 40% 0.00 in 891 W/m2
14:33 86.6 °F 60.1 °F 29.72 in South 6.0 mph 11.0 mph 41% 0.00 in 288 W/m2
14:39 86.5 °F 60.0 °F 29.71 in WNW 6.0 mph 6.0 mph 41% 0.00 in 432 W/m2
14:45 87.5 °F 60.9 °F 29.71 in SW 5.0 mph 6.0 mph 41% 0.00 in 283 W/m2
14:52 87.1 °F 60.5 °F 29.71 in West 4.0 mph 8.0 mph 41% 0.00 in 308 W/m2
14:58 86.8 °F 61.0 °F 29.71 in SW 4.0 mph 8.0 mph 42% 0.00 in 216 W/m2
15:03 86.7 °F 60.9 °F 29.70 in South 5.0 mph 5.0 mph 42% 0.00 in 469 W/m2
15:09 87.5 °F 60.9 °F 29.70 in WSW 4.0 mph 5.0 mph 41% 0.00 in 564 W/m2
15:15 87.9 °F 61.9 °F 29.70 in SSW 4.0 mph 11.0 mph 42% 0.00 in 438 W/m2
15:22 87.9 °F 63.9 °F 29.70 in West 6.0 mph 11.0 mph 45% 0.00 in 889 W/m2
15:28 88.1 °F 61.4 °F 29.69 in WSW 5.0 mph 11.0 mph 41% 0.00 in 179 W/m2
15:33 87.2 °F 60.6 °F 29.69 in SW 5.0 mph 6.0 mph 41% 0.00 in 260 W/m2
15:39 87.0 °F 61.1 °F 29.69 in SW 5.0 mph 5.0 mph 42% 0.00 in 274 W/m2
15:45 87.1 °F 60.5 °F 29.69 in West 5.0 mph 7.0 mph 41% 0.00 in 116 W/m2
15:52 86.8 °F 60.3 °F 29.69 in SW 5.0 mph 8.0 mph 41% 0.00 in 478 W/m2
15:58 86.9 °F 60.4 °F 29.68 in WSW 4.0 mph 8.0 mph 41% 0.00 in 181 W/m2
16:03 86.6 °F 59.4 °F 29.67 in South 4.0 mph 5.0 mph 40% 0.00 in 279 W/m2
16:09 86.5 °F 60.7 °F 29.67 in SSW 4.0 mph 4.0 mph 42% 0.00 in 202 W/m2
16:15 86.3 °F 60.5 °F 29.67 in SW 3.0 mph 4.0 mph 42% 0.00 in 202 W/m2
16:22 86.1 °F 60.3 °F 29.67 in West 4.0 mph 5.0 mph 42% 0.00 in 156 W/m2
16:28 85.8 °F 60.7 °F 29.67 in West 3.0 mph 5.0 mph 43% 0.00 in 95 W/m2
16:33 85.6 °F 60.5 °F 29.67 in WSW 3.0 mph 4.0 mph 43% 0.00 in 84 W/m2
16:39 85.2 °F 60.2 °F 29.67 in WSW 4.0 mph 4.0 mph 43% 0.00 in 76 W/m2
16:45 84.9 °F 60.6 °F 29.67 in SW 3.0 mph 4.0 mph 44% 0.00 in 93 W/m2
16:53 84.6 °F 60.3 °F 29.68 in SSW 3.0 mph 4.0 mph 44% 0.00 in 105 W/m2
16:59 84.2 °F 60.6 °F 29.67 in SW 3.0 mph 3.0 mph 45% 0.00 in 62 W/m2
17:05 83.8 °F 60.8 °F 29.68 in SW 2.0 mph 4.0 mph 46% 0.00 in 25 W/m2
17:11 83.3 °F 61.0 °F 29.67 in SW 2.0 mph 4.0 mph 47% 0.00 in 11 W/m2
17:18 82.9 °F 60.0 °F 29.67 in WSW 2.0 mph 4.0 mph 46% 0.00 in 9 W/m2
17:23 82.7 °F 61.0 °F 29.68 in West 2.0 mph 6.0 mph 48% 0.00 in 7 W/m2
17:29 82.2 °F 60.0 °F 29.69 in SSW 3.0 mph 5.0 mph 47% 0.00 in 0 W/m2
17:35 80.4 °F 61.7 °F 29.70 in West 5.0 mph 11.0 mph 53% 0.23 in 0 W/m2
17:42 75.3 °F 62.7 °F 29.71 in WSW 6.0 mph 7.0 mph 65% 0.20 in 5 W/m2
17:48 73.1 °F 62.3 °F 29.70 in SW 4.0 mph 7.0 mph 69% 0.07 in 5 W/m2
17:53 72.3 °F 62.4 °F 29.70 in SSW 2.0 mph 7.0 mph 71% 0.04 in 7 W/m2
17:59 72.3 °F 62.4 °F 29.69 in SSW 3.0 mph 3.0 mph 71% 0.00 in 12 W/m2
18:05 72.2 °F 62.7 °F 29.71 in WNW 2.0 mph 3.0 mph 72% 0.00 in 18 W/m2
18:11 71.8 °F 63.1 °F 29.73 in NNW 2.0 mph 4.0 mph 74% 0.00 in 40 W/m2
18:18 71.4 °F 63.4 °F 29.73 in NNW 1.0 mph 4.0 mph 76% 0.00 in 74 W/m2
18:24 71.4 °F 63.1 °F 29.72 in West 2.0 mph 2.0 mph 75% 0.00 in 93 W/m2
18:29 71.9 °F 62.8 °F 29.72 in WNW 1.0 mph 2.0 mph 73% 0.00 in 79 W/m2
18:35 72.2 °F 63.1 °F 29.72 in West 1.0 mph 2.0 mph 73% 0.00 in 163 W/m2
18:42 72.8 °F 63.2 °F 29.70 in WNW 2.0 mph 3.0 mph 72% 0.00 in 209 W/m2
18:48 73.3 °F 62.5 °F 29.70 in SW 1.0 mph 3.0 mph 69% 0.00 in 151 W/m2
18:53 73.7 °F 63.3 °F 29.70 in Calm   1.0 mph 70% 0.00 in 93 W/m2
18:59 73.8 °F 63.0 °F 29.70 in SSW 1.0 mph 2.0 mph 69% 0.00 in 65 W/m2
19:05 73.4 °F 64.2 °F 29.70 in South 2.0 mph 4.0 mph 73% 0.00 in 51 W/m2
19:11 73.0 °F 63.8 °F 29.70 in South 2.0 mph 2.0 mph 73% 0.00 in 46 W/m2
19:18 72.5 °F 64.1 °F 29.70 in South 2.0 mph 2.0 mph 75% 0.00 in 42 W/m2
19:23 72.2 °F 64.6 °F 29.70 in SSE 2.0 mph 3.0 mph 77% 0.00 in 39 W/m2
19:29 71.9 °F 64.7 °F 29.70 in South 2.0 mph 4.0 mph 78% 0.00 in 35 W/m2
19:35 71.7 °F 64.5 °F 29.70 in SSE 2.0 mph 4.0 mph 78% 0.00 in 33 W/m2
19:42 71.4 °F 64.5 °F 29.70 in SSW 2.0 mph 2.0 mph 79% 0.00 in 26 W/m2
19:48 71.3 °F 64.1 °F 29.70 in South 2.0 mph 4.0 mph 78% 0.00 in 23 W/m2
19:53 71.3 °F 64.4 °F 29.70 in South 2.0 mph 2.0 mph 79% 0.00 in 19 W/m2
19:59 71.2 °F 64.4 °F 29.70 in South 2.0 mph 2.0 mph 79% 0.00 in 16 W/m2
20:05 71.0 °F 64.2 °F 29.70 in South 2.0 mph 2.0 mph 79% 0.00 in 12 W/m2
20:11 70.7 °F 63.9 °F 29.70 in South 2.0 mph 2.0 mph 79% 0.00 in 9 W/m2
20:18 70.6 °F 63.8 °F 29.70 in South 1.0 mph 2.0 mph 79% 0.00 in 5 W/m2
20:23 70.6 °F 63.8 °F 29.70 in South 1.0 mph 2.0 mph 79% 0.00 in 0 W/m2
20:29 70.4 °F 63.6 °F 29.70 in South 1.0 mph 4.0 mph 79% 0.00 in 0 W/m2
20:35 70.3 °F 63.5 °F 29.71 in South 1.0 mph 4.0 mph 79% 0.00 in 0 W/m2
20:41 70.1 °F 63.3 °F 29.71 in South 1.0 mph 2.0 mph 79% 0.00 in 0 W/m2
20:47 70.0 °F 63.2 °F 29.70 in South 1.0 mph 4.0 mph 79% 0.00 in 0 W/m2
20:53 70.0 °F 63.2 °F 29.70 in South 1.0 mph 1.0 mph 79% 0.00 in 0 W/m2
20:59 70.1 °F 62.9 °F 29.70 in South 1.0 mph 3.0 mph 78% 0.00 in 0 W/m2
21:05 70.4 °F 63.2 °F 29.70 in South 1.0 mph 3.0 mph 78% 0.00 in 0 W/m2
21:12 70.5 °F 62.9 °F 29.70 in South 1.0 mph 1.0 mph 77% 0.00 in 0 W/m2
21:18 70.4 °F 62.8 °F 29.70 in Calm   1.0 mph 77% 0.00 in 0 W/m2
21:23 70.2 °F 62.6 °F 29.70 in Calm     77% 0.00 in 0 W/m2
21:29 69.4 °F 63.0 °F 29.70 in Calm     80% 0.00 in 0 W/m2
21:35 68.5 °F 62.8 °F 29.70 in Calm     82% 0.00 in 0 W/m2
21:42 67.5 °F 62.5 °F 29.70 in Calm     84% 0.00 in 0 W/m2
21:48 66.9 °F 62.6 °F 29.70 in Calm     86% 0.00 in 0 W/m2
21:53 66.8 °F 62.5 °F 29.70 in Calm     86% 0.00 in 0 W/m2
21:59 68.1 °F 63.4 °F 29.70 in SW 1.0 mph 2.0 mph 85% 0.00 in 0 W/m2
22:05 70.2 °F 63.4 °F 29.70 in SW 2.0 mph 5.0 mph 79% 0.00 in 0 W/m2
22:11 71.5 °F 63.2 °F 29.70 in West 3.0 mph 3.0 mph 75% 0.00 in 0 W/m2
22:18 72.3 °F 63.2 °F 29.70 in SW 3.0 mph 4.0 mph 73% 0.00 in 0 W/m2
22:23 72.6 °F 63.1 °F 29.70 in SW 3.0 mph 6.0 mph 72% 0.00 in 0 W/m2
22:29 72.8 °F 63.2 °F 29.70 in SW 4.0 mph 4.0 mph 72% 0.00 in 0 W/m2
22:35 72.9 °F 62.9 °F 29.70 in SW 3.0 mph 6.0 mph 71% 0.00 in 0 W/m2
22:41 73.4 °F 62.6 °F 29.69 in SW 5.0 mph 7.0 mph 69% 0.00 in 0 W/m2
22:48 73.6 °F 62.8 °F 29.69 in SW 5.0 mph 7.0 mph 69% 0.00 in 0 W/m2
22:53 73.6 °F 62.4 °F 29.69 in SW 4.0 mph 4.0 mph 68% 0.00 in 0 W/m2
22:59 73.7 °F 62.5 °F 29.69 in SSW 4.0 mph 4.0 mph 68% 0.00 in 0 W/m2
23:05 73.9 °F 62.2 °F 29.69 in SSW 5.0 mph 6.0 mph 67% 0.00 in 0 W/m2
23:12 73.9 °F 62.2 °F 29.69 in SSW 5.0 mph 5.0 mph 67% 0.00 in 0 W/m2
23:18 74.1 °F 62.0 °F 29.69 in WSW 5.0 mph 8.0 mph 66% 0.00 in 0 W/m2
23:23 74.3 °F 62.2 °F 29.69 in WSW 5.0 mph 5.0 mph 66% 0.00 in 0 W/m2
23:29 74.4 °F 61.9 °F 29.69 in WSW 4.0 mph 4.0 mph 65% 0.00 in 0 W/m2
23:35 74.5 °F 62.0 °F 29.70 in SSW 4.0 mph 6.0 mph 65% 0.00 in 0 W/m2
23:42 74.3 °F 62.2 °F 29.70 in West 4.0 mph 4.0 mph 66% 0.00 in 0 W/m2
23:48 73.2 °F 62.4 °F 29.73 in NNW 4.0 mph 9.0 mph 69% 0.00 in 0 W/m2
23:53 72.1 °F 62.6 °F 29.74 in NW 4.0 mph 4.0 mph 72% 0.00 in 0 W/m2
23:59 71.5 °F 62.8 °F 29.74 in NW 3.0 mph 3.0 mph 74% 0.00 in 0 W/m2
Country Meadow, Clay, NY, USA
Compliments of Weather Underground - 2 mb